createdAt,value
2018-12-24T00:01:01.660Z,6.00
2018-12-24T00:03:43.264Z,6.00
2018-12-24T00:06:25.161Z,6.00
2018-12-24T00:09:07.089Z,5.90
2018-12-24T00:11:49.555Z,5.90
2018-12-24T00:14:32.020Z,5.90
2018-12-24T00:17:14.534Z,5.90
2018-12-24T00:19:56.249Z,5.90
2018-12-24T00:22:38.889Z,5.90
2018-12-24T00:25:20.601Z,5.90
2018-12-24T00:28:01.208Z,5.80
2018-12-24T00:33:57.445Z,5.80
2018-12-24T00:36:39.280Z,5.80
2018-12-24T00:39:21.046Z,5.80
2018-12-24T00:42:02.848Z,5.80
2018-12-24T00:44:45.359Z,5.80
2018-12-24T00:47:27.114Z,5.80
2018-12-24T00:50:09.024Z,5.80
2018-12-24T00:52:51.581Z,5.80
2018-12-24T00:55:33.389Z,5.80
2018-12-24T00:58:15.179Z,5.70
2018-12-24T01:00:57.663Z,5.70
2018-12-24T01:03:39.279Z,5.80
2018-12-24T01:06:21.158Z,5.80
2018-12-24T01:09:04.760Z,5.80
2018-12-24T01:11:46.799Z,5.80
2018-12-24T01:14:28.514Z,5.80
2018-12-24T01:17:10.200Z,5.90
2018-12-24T01:19:52.305Z,5.80
2018-12-24T01:22:33.988Z,5.90
2018-12-24T01:25:15.704Z,5.90
2018-12-24T01:27:57.486Z,5.90
2018-12-24T01:30:40.064Z,5.90
2018-12-24T01:33:22.416Z,5.90
2018-12-24T01:36:04.106Z,5.90
2018-12-24T01:38:46.399Z,5.90
2018-12-24T01:41:28.981Z,5.90
2018-12-24T01:44:13.423Z,5.90
2018-12-24T01:46:43.815Z,5.90
2018-12-24T01:49:14.434Z,5.90
2018-12-24T01:51:44.992Z,5.90
2018-12-24T01:54:15.575Z,6.00
2018-12-24T01:56:46.159Z,6.00
2018-12-24T01:59:16.948Z,6.00
2018-12-24T02:01:47.633Z,6.00
2018-12-24T02:04:18.239Z,6.00
2018-12-24T02:06:48.866Z,6.00
2018-12-24T02:09:19.449Z,5.90
2018-12-24T02:11:50.027Z,5.90
2018-12-24T02:14:20.611Z,5.90
2018-12-24T02:16:51.183Z,5.90
2018-12-24T02:19:21.783Z,5.90
2018-12-24T02:21:52.372Z,5.90
2018-12-24T02:25:11.039Z,5.90
2018-12-24T02:27:53.068Z,5.90
2018-12-24T02:30:34.865Z,5.90
2018-12-24T02:33:16.814Z,5.90
2018-12-24T02:35:58.703Z,5.90
2018-12-24T02:38:40.551Z,5.90
2018-12-24T02:41:22.544Z,5.80
2018-12-24T02:44:04.301Z,5.80
2018-12-24T02:46:46.066Z,5.80
2018-12-24T02:49:28.159Z,5.90
2018-12-24T02:52:12.207Z,5.80
2018-12-24T02:54:56.128Z,5.90
2018-12-24T02:57:37.919Z,5.90
2018-12-24T03:00:20.204Z,5.90
2018-12-24T03:03:01.850Z,5.90
2018-12-24T03:05:43.563Z,5.90
2018-12-24T03:08:25.612Z,5.90
2018-12-24T03:11:07.622Z,5.90
2018-12-24T03:13:49.861Z,5.90
2018-12-24T03:16:31.560Z,5.90
2018-12-24T03:19:13.923Z,5.90
2018-12-24T03:21:56.086Z,5.90
2018-12-24T03:24:38.370Z,5.90
2018-12-24T03:27:20.113Z,5.90
2018-12-24T03:30:02.252Z,5.90
2018-12-24T03:32:43.958Z,5.90
2018-12-24T03:35:26.011Z,5.90
2018-12-24T03:38:07.823Z,5.90
2018-12-24T03:40:49.869Z,5.90
2018-12-24T03:43:31.703Z,6.00
2018-12-24T03:46:13.480Z,5.90
2018-12-24T03:48:55.332Z,5.90
2018-12-24T03:51:37.321Z,5.90
2018-12-24T03:54:19.364Z,6.00
2018-12-24T03:57:01.311Z,6.00
2018-12-24T03:59:44.854Z,5.90
2018-12-24T04:02:26.653Z,5.90
2018-12-24T04:05:08.760Z,5.90
2018-12-24T04:07:50.531Z,5.90
2018-12-24T04:10:32.496Z,5.90
2018-12-24T04:13:22.358Z,5.90
2018-12-24T04:15:58.040Z,5.90
2018-12-24T04:18:39.695Z,6.00
2018-12-24T04:21:22.774Z,6.00
2018-12-24T04:24:05.023Z,5.90
2018-12-24T04:26:46.818Z,6.00
2018-12-24T04:29:28.606Z,5.90
2018-12-24T04:32:10.515Z,6.00
2018-12-24T04:34:52.308Z,6.00
2018-12-24T04:37:34.090Z,6.00
2018-12-24T04:40:15.575Z,6.00
2018-12-24T04:42:57.337Z,6.00
2018-12-24T04:45:39.120Z,6.00
2018-12-24T04:48:20.997Z,6.00
2018-12-24T04:51:02.921Z,6.00
2018-12-24T04:53:44.752Z,6.00
2018-12-24T04:56:32.568Z,6.00
2018-12-24T04:59:14.298Z,6.00
2018-12-24T05:01:56.542Z,6.00
2018-12-24T05:04:38.377Z,6.00
2018-12-24T05:07:20.256Z,6.00
2018-12-24T05:10:02.080Z,6.00
2018-12-24T05:12:43.859Z,6.00
2018-12-24T05:15:25.985Z,6.10
2018-12-24T05:18:08.100Z,6.10
2018-12-24T05:20:51.153Z,6.10
2018-12-24T05:23:33.064Z,6.10
2018-12-24T05:26:15.120Z,6.10
2018-12-24T05:28:57.288Z,6.10
2018-12-24T05:31:38.923Z,6.10
2018-12-24T05:34:20.528Z,6.00
2018-12-24T05:37:02.163Z,6.00
2018-12-24T05:39:43.684Z,6.00
2018-12-24T05:42:25.444Z,6.10
2018-12-24T05:45:07.729Z,6.00
2018-12-24T05:47:49.676Z,6.10
2018-12-24T05:50:31.919Z,6.10
2018-12-24T05:53:13.859Z,6.10
2018-12-24T05:55:56.078Z,6.00
2018-12-24T05:58:38.147Z,6.10
2018-12-24T06:01:19.748Z,6.10
2018-12-24T06:04:01.917Z,6.10
2018-12-24T06:06:44.089Z,6.10
2018-12-24T06:09:25.648Z,6.10
2018-12-24T06:12:07.460Z,6.10
2018-12-24T06:14:49.652Z,6.10
2018-12-24T06:17:31.491Z,6.10
2018-12-24T06:20:13.384Z,6.00
2018-12-24T06:22:55.292Z,6.10
2018-12-24T06:25:37.249Z,6.10
2018-12-24T06:28:19.199Z,6.10
2018-12-24T06:31:01.233Z,6.10
2018-12-24T06:33:42.708Z,6.10
2018-12-24T06:36:24.184Z,6.10
2018-12-24T06:39:06.603Z,6.10
2018-12-24T06:45:02.564Z,6.10
2018-12-24T06:47:44.264Z,6.10
2018-12-24T06:50:26.036Z,6.10
2018-12-24T06:53:07.512Z,6.10
2018-12-24T06:55:49.893Z,6.10
2018-12-24T06:58:31.976Z,6.10
2018-12-24T07:01:13.716Z,6.10
2018-12-24T07:03:55.511Z,6.10
2018-12-24T07:06:37.356Z,6.00
2018-12-24T07:09:19.175Z,6.00
2018-12-24T07:12:00.961Z,6.10
2018-12-24T07:14:42.759Z,6.00
2018-12-24T07:17:24.559Z,6.10
2018-12-24T07:20:06.352Z,6.00
2018-12-24T07:22:48.123Z,6.00
2018-12-24T07:25:30.124Z,6.00
2018-12-24T07:28:12.136Z,6.00
2018-12-24T07:30:53.975Z,6.00
2018-12-24T07:33:35.403Z,6.00
2018-12-24T07:36:19.879Z,6.00
2018-12-24T07:39:01.903Z,5.90
2018-12-24T07:41:44.485Z,5.90
2018-12-24T07:44:26.544Z,5.90
2018-12-24T07:47:08.676Z,6.00
2018-12-24T07:49:50.616Z,6.00
2018-12-24T07:52:32.497Z,6.00
2018-12-24T07:55:15.989Z,6.00
2018-12-24T07:57:57.374Z,6.10
2018-12-24T08:00:39.242Z,6.10
2018-12-24T08:03:21.504Z,6.10
2018-12-24T08:06:03.474Z,6.10
2018-12-24T08:08:45.496Z,6.10
2018-12-24T08:11:27.244Z,6.10
2018-12-24T08:14:08.921Z,6.10
2018-12-24T08:16:50.762Z,6.10
2018-12-24T08:19:32.359Z,6.10
2018-12-24T08:22:15.484Z,6.10
2018-12-24T08:24:57.453Z,6.10
2018-12-24T08:27:38.868Z,6.20
2018-12-24T08:30:20.905Z,6.10
2018-12-24T08:33:02.751Z,6.10
2018-12-24T08:35:44.667Z,6.20
2018-12-24T08:38:26.711Z,6.20
2018-12-24T08:41:08.752Z,6.20
2018-12-24T08:43:50.568Z,6.20
2018-12-24T08:46:32.543Z,6.20
2018-12-24T08:49:14.567Z,6.30
2018-12-24T08:51:56.661Z,6.30
2018-12-24T08:54:38.683Z,6.30
2018-12-24T08:57:20.612Z,6.30
2018-12-24T09:03:03.821Z,6.40
2018-12-24T09:05:45.732Z,6.40
2018-12-24T09:08:27.615Z,6.40
2018-12-24T09:11:09.620Z,6.50
2018-12-24T09:13:51.477Z,6.40
2018-12-24T09:16:33.219Z,6.50
2018-12-24T09:19:15.045Z,6.40
2018-12-24T09:21:57.158Z,6.50
2018-12-24T09:24:39.230Z,6.50
2018-12-24T09:27:21.478Z,6.50
2018-12-24T09:30:03.429Z,6.60
2018-12-24T09:32:45.080Z,6.60
2018-12-24T09:35:26.898Z,6.60
2018-12-24T09:38:09.016Z,6.60
2018-12-24T09:40:50.731Z,6.60
2018-12-24T09:43:32.581Z,6.60
2018-12-24T09:46:14.608Z,6.60
2018-12-24T09:48:56.853Z,6.60
2018-12-24T09:51:38.931Z,6.60
2018-12-24T09:54:21.066Z,6.60
2018-12-24T09:57:03.243Z,6.60
2018-12-24T09:59:45.336Z,6.60
2018-12-24T10:02:27.372Z,6.60
2018-12-24T10:05:09.524Z,6.60
2018-12-24T10:07:51.444Z,6.50
2018-12-24T10:10:33.232Z,6.50
2018-12-24T10:13:15.555Z,6.50
2018-12-24T10:15:57.456Z,6.90
2018-12-24T10:18:39.699Z,9.00
2018-12-24T10:21:21.833Z,11.30
2018-12-24T10:24:03.808Z,12.80
2018-12-24T10:26:45.776Z,14.10
2018-12-24T10:29:28.031Z,14.60
2018-12-24T10:32:10.238Z,15.70
2018-12-24T10:34:52.096Z,16.00
2018-12-24T10:37:33.903Z,16.00
2018-12-24T10:40:16.019Z,16.30
2018-12-24T10:42:58.120Z,16.50
2018-12-24T10:45:45.559Z,16.40
2018-12-24T10:48:27.793Z,16.50
2018-12-24T10:51:09.904Z,16.00
2018-12-24T10:53:51.713Z,16.70
2018-12-24T10:56:33.739Z,16.90
2018-12-24T10:59:15.735Z,17.10
2018-12-24T11:01:57.764Z,17.10
2018-12-24T11:04:39.739Z,16.80
2018-12-24T11:07:21.576Z,17.40
2018-12-24T11:10:03.191Z,17.00
2018-12-24T11:12:45.802Z,17.10
2018-12-24T11:15:27.740Z,16.90
2018-12-24T11:18:09.879Z,16.50
2018-12-24T11:20:51.641Z,16.10
2018-12-24T11:23:33.297Z,16.00
2018-12-24T11:26:15.343Z,16.50
2018-12-24T11:28:57.056Z,16.70
2018-12-24T11:31:38.748Z,16.80
2018-12-24T11:34:19.048Z,16.70
2018-12-24T11:40:14.845Z,16.90
2018-12-24T11:42:56.736Z,16.60
2018-12-24T11:45:38.740Z,16.00
2018-12-24T11:48:20.936Z,15.50
2018-12-24T11:51:03.390Z,15.50
2018-12-24T11:53:45.254Z,16.00
2018-12-24T11:56:27.484Z,16.10
2018-12-24T11:59:09.745Z,15.50
2018-12-24T12:01:51.527Z,15.10
2018-12-24T12:04:33.452Z,15.60
2018-12-24T12:07:15.464Z,15.80
2018-12-24T12:09:57.584Z,15.90
2018-12-24T12:12:39.496Z,16.30
2018-12-24T12:15:21.376Z,16.30
2018-12-24T12:18:03.744Z,16.30
2018-12-24T12:20:52.534Z,16.60
2018-12-24T12:23:29.583Z,16.20
2018-12-24T12:26:11.571Z,16.10
2018-12-24T12:28:53.882Z,15.80
2018-12-24T12:31:35.853Z,15.60
2018-12-24T12:34:17.815Z,15.60
2018-12-24T12:36:59.468Z,14.60
2018-12-24T12:39:40.962Z,14.40
2018-12-24T12:42:22.689Z,14.70
2018-12-24T12:45:04.605Z,15.00
2018-12-24T12:47:46.623Z,15.30
2018-12-24T12:50:28.734Z,15.00
2018-12-24T12:53:10.408Z,15.30
2018-12-24T12:55:52.123Z,14.40
2018-12-24T12:58:34.021Z,13.90
2018-12-24T13:01:15.968Z,13.90
2018-12-24T13:03:57.719Z,14.20
2018-12-24T13:06:39.571Z,13.90
2018-12-24T13:09:21.456Z,14.10
2018-12-24T13:12:03.757Z,14.00
2018-12-24T13:14:45.751Z,13.70
2018-12-24T13:17:27.667Z,12.80
2018-12-24T13:20:09.559Z,11.50
2018-12-24T13:22:51.288Z,11.00
2018-12-24T13:25:33.061Z,10.30
2018-12-24T13:28:15.111Z,10.00
2018-12-24T13:30:56.988Z,9.70
2018-12-24T13:33:38.960Z,9.40
2018-12-24T13:36:20.743Z,9.30
2018-12-24T13:39:02.352Z,8.90
2018-12-24T13:41:43.876Z,8.70
2018-12-24T13:44:25.885Z,8.40
2018-12-24T13:47:08.045Z,8.10
2018-12-24T13:49:51.938Z,8.00
2018-12-24T13:52:33.139Z,7.90
2018-12-24T13:55:15.191Z,7.70
2018-12-24T13:57:57.358Z,7.60
2018-12-24T14:00:39.298Z,7.40
2018-12-24T14:03:21.152Z,7.40
2018-12-24T14:06:03.145Z,7.70
2018-12-24T14:08:45.031Z,8.00
2018-12-24T14:11:27.228Z,8.30
2018-12-24T14:14:09.400Z,8.50
2018-12-24T14:16:51.160Z,8.40
2018-12-24T14:19:32.631Z,8.10
2018-12-24T14:22:14.157Z,7.90
2018-12-24T14:24:56.379Z,7.70
2018-12-24T14:27:38.459Z,7.40
2018-12-24T14:30:20.735Z,7.20
2018-12-24T14:33:02.477Z,7.00
2018-12-24T14:35:44.312Z,6.80
2018-12-24T14:38:25.888Z,6.60
2018-12-24T14:41:08.117Z,6.50
2018-12-24T14:43:50.407Z,6.30
2018-12-24T14:46:32.099Z,6.20
2018-12-24T14:49:13.937Z,6.00
2018-12-24T14:51:57.599Z,5.90
2018-12-24T14:54:37.919Z,5.70
2018-12-24T14:57:27.131Z,5.70
2018-12-24T15:00:09.343Z,5.60
2018-12-24T15:02:52.488Z,5.60
2018-12-24T15:05:34.576Z,5.40
2018-12-24T15:08:16.684Z,5.40
2018-12-24T15:10:58.831Z,5.30
2018-12-24T15:13:40.688Z,5.20
2018-12-24T15:16:22.942Z,5.10
2018-12-24T15:19:04.869Z,4.90
2018-12-24T15:21:46.683Z,4.80
2018-12-24T15:24:28.752Z,4.70
2018-12-24T15:27:10.777Z,4.60
2018-12-24T15:29:52.772Z,4.50
2018-12-24T15:32:34.799Z,4.40
2018-12-24T15:35:16.535Z,4.20
2018-12-24T15:38:03.164Z,4.10
2018-12-24T15:40:45.432Z,4.00
2018-12-24T15:43:27.712Z,4.20
2018-12-24T15:46:09.535Z,4.10
2018-12-24T15:48:51.844Z,3.80
2018-12-24T15:51:33.707Z,3.70
2018-12-24T15:54:15.532Z,3.40
2018-12-24T15:56:57.460Z,3.30
2018-12-24T15:59:39.632Z,3.20
2018-12-24T16:02:21.536Z,3.10
2018-12-24T16:05:03.676Z,3.20
2018-12-24T16:07:45.756Z,3.10
2018-12-24T16:10:27.584Z,3.00
2018-12-24T16:13:09.279Z,3.00
2018-12-24T16:15:50.722Z,3.00
2018-12-24T16:18:32.588Z,3.00
2018-12-24T16:21:14.644Z,3.00
2018-12-24T16:23:56.478Z,2.80
2018-12-24T16:26:38.418Z,2.70
2018-12-24T16:29:20.537Z,2.60
2018-12-24T16:32:02.620Z,2.40
2018-12-24T16:34:44.905Z,2.30
2018-12-24T16:37:26.760Z,2.20
2018-12-24T16:40:08.670Z,2.30
2018-12-24T16:42:50.423Z,2.40
2018-12-24T16:45:32.163Z,2.30
2018-12-24T16:48:14.154Z,2.30
2018-12-24T16:50:56.363Z,2.30
2018-12-24T16:53:40.563Z,2.30
2018-12-24T16:56:21.771Z,2.30
2018-12-24T16:59:04.076Z,2.20
2018-12-24T17:01:45.963Z,2.00
2018-12-24T17:04:28.076Z,2.00
2018-12-24T17:07:10.259Z,2.00
2018-12-24T17:09:52.150Z,1.90
2018-12-24T17:12:34.059Z,1.90
2018-12-24T17:15:16.087Z,1.90
2018-12-24T17:17:57.506Z,1.80
2018-12-24T17:20:40.028Z,1.80
2018-12-24T17:23:21.715Z,1.80
2018-12-24T17:26:03.843Z,1.70
2018-12-24T17:28:45.831Z,1.60
2018-12-24T17:31:28.058Z,1.60
2018-12-24T17:34:10.169Z,1.70
2018-12-24T17:36:52.148Z,1.60
2018-12-24T17:39:35.048Z,1.60
2018-12-24T17:42:17.213Z,1.50
2018-12-24T17:44:59.076Z,1.50
2018-12-24T17:47:41.026Z,1.60
2018-12-24T17:50:23.044Z,1.60
2018-12-24T17:53:04.544Z,1.60
2018-12-24T17:55:46.728Z,1.70
2018-12-24T17:58:29.024Z,1.80
2018-12-24T18:01:11.232Z,1.60
2018-12-24T18:03:53.488Z,1.20
2018-12-24T18:06:35.415Z,1.20
2018-12-24T18:09:17.416Z,1.20
2018-12-24T18:11:59.279Z,1.20
2018-12-24T18:14:41.481Z,1.30
2018-12-24T18:17:24.846Z,1.20
2018-12-24T18:20:06.776Z,1.10
2018-12-24T18:22:48.672Z,0.90
2018-12-24T18:25:32.505Z,0.80
2018-12-24T18:28:14.447Z,0.80
2018-12-24T18:30:57.513Z,0.70
2018-12-24T18:33:39.812Z,0.60
2018-12-24T18:36:21.948Z,0.60
2018-12-24T18:39:04.427Z,0.50
2018-12-24T18:41:45.899Z,0.60
2018-12-24T18:44:27.944Z,0.80
2018-12-24T18:47:09.571Z,0.70
2018-12-24T18:49:50.889Z,0.70
2018-12-24T18:52:32.689Z,0.70
2018-12-24T18:55:14.410Z,0.70
2018-12-24T18:57:56.511Z,0.70
2018-12-24T19:00:38.752Z,0.70
2018-12-24T19:03:20.936Z,0.50
2018-12-24T19:06:03.165Z,0.30
2018-12-24T19:08:45.095Z,0.10
2018-12-24T19:11:27.189Z,0.10
2018-12-24T19:14:08.987Z,0.20
2018-12-24T19:16:50.971Z,0.20
2018-12-24T19:19:32.971Z,0.00
2018-12-24T19:22:14.742Z,0.00
2018-12-24T19:24:56.953Z,-0.10
2018-12-24T19:27:38.354Z,-0.20
2018-12-24T19:30:20.232Z,-0.30
2018-12-24T19:33:02.080Z,-0.20
2018-12-24T19:35:44.015Z,0.00
2018-12-24T19:38:25.912Z,0.10
2018-12-24T19:41:07.900Z,0.30
2018-12-24T19:43:49.905Z,0.40
2018-12-24T19:46:32.006Z,0.30
2018-12-24T19:49:14.231Z,0.20
2018-12-24T19:51:56.438Z,0.30
2018-12-24T19:54:38.364Z,0.30
2018-12-24T19:57:19.989Z,0.10
2018-12-24T20:00:02.087Z,0.00
2018-12-24T20:02:44.621Z,0.10
2018-12-24T20:05:26.698Z,0.20
2018-12-24T20:08:10.277Z,0.00
2018-12-24T20:10:52.309Z,-0.10
2018-12-24T20:13:34.289Z,-0.20
2018-12-24T20:16:16.119Z,-0.20
2018-12-24T20:18:57.832Z,-0.20
2018-12-24T20:21:39.793Z,0.00
2018-12-24T20:24:21.768Z,0.00
2018-12-24T20:27:03.880Z,0.00
2018-12-24T20:29:45.731Z,0.10
2018-12-24T20:32:27.785Z,0.10
2018-12-24T20:35:09.514Z,0.00
2018-12-24T20:37:50.972Z,-0.10
2018-12-24T20:40:32.996Z,-0.10
2018-12-24T20:43:14.752Z,-0.20
2018-12-24T20:45:56.893Z,-0.20
2018-12-24T20:48:38.801Z,-0.20
2018-12-24T20:51:20.923Z,0.00
2018-12-24T20:54:02.397Z,0.10
2018-12-24T20:56:44.608Z,0.20
2018-12-24T20:59:26.934Z,0.20
2018-12-24T21:02:08.521Z,0.20
2018-12-24T21:04:50.800Z,0.30
2018-12-24T21:07:32.680Z,0.30
2018-12-24T21:10:14.297Z,0.50
2018-12-24T21:12:56.601Z,0.60
2018-12-24T21:15:43.628Z,0.60
2018-12-24T21:18:25.565Z,0.60
2018-12-24T21:21:07.376Z,0.70
2018-12-24T21:23:49.436Z,0.70
2018-12-24T21:26:31.248Z,0.80
2018-12-24T21:29:12.691Z,0.80
2018-12-24T21:31:54.498Z,1.00
2018-12-24T21:34:36.018Z,1.10
2018-12-24T21:37:17.916Z,1.10
2018-12-24T21:39:59.923Z,1.10
2018-12-24T21:42:42.096Z,1.10
2018-12-24T21:45:24.232Z,1.10
2018-12-24T21:48:06.233Z,1.10
2018-12-24T21:50:50.417Z,1.20
2018-12-24T21:53:32.328Z,1.40
2018-12-24T21:56:14.389Z,1.40
2018-12-24T21:58:56.183Z,1.40
2018-12-24T22:01:38.439Z,1.40
2018-12-24T22:04:20.385Z,1.40
2018-12-24T22:07:01.997Z,1.50
2018-12-24T22:09:44.209Z,1.60
2018-12-24T22:12:26.291Z,1.70
2018-12-24T22:15:07.808Z,1.80
2018-12-24T22:17:50.054Z,1.80
2018-12-24T22:20:31.841Z,1.80
2018-12-24T22:23:13.923Z,1.80
2018-12-24T22:25:55.739Z,1.90
2018-12-24T22:28:37.719Z,2.00
2018-12-24T22:31:19.527Z,1.90
2018-12-24T22:34:01.879Z,1.90
2018-12-24T22:36:43.770Z,1.80
2018-12-24T22:39:25.753Z,1.70
2018-12-24T22:42:07.744Z,1.70
2018-12-24T22:44:49.390Z,1.70
2018-12-24T22:47:30.871Z,1.90
2018-12-24T22:50:12.608Z,1.90
2018-12-24T22:52:54.651Z,2.10
2018-12-24T22:55:36.475Z,2.10
2018-12-24T22:58:18.384Z,2.00
2018-12-24T23:01:04.448Z,2.00
2018-12-24T23:03:46.547Z,2.00
2018-12-24T23:06:28.329Z,1.90
2018-12-24T23:09:10.007Z,2.00
2018-12-24T23:11:51.688Z,2.00
2018-12-24T23:14:33.800Z,1.90
2018-12-24T23:17:15.615Z,1.90
2018-12-24T23:19:57.605Z,2.00
2018-12-24T23:22:39.373Z,2.10
2018-12-24T23:25:21.172Z,2.10
2018-12-24T23:28:02.543Z,2.20
2018-12-24T23:30:44.558Z,2.20
2018-12-24T23:33:26.556Z,2.30
2018-12-24T23:36:08.313Z,2.30
2018-12-24T23:38:50.054Z,2.40
2018-12-24T23:41:32.052Z,2.40
2018-12-24T23:44:14.099Z,2.40
2018-12-24T23:46:56.280Z,2.40
2018-12-24T23:49:38.116Z,2.40
2018-12-24T23:52:20.337Z,2.40
2018-12-24T23:55:02.505Z,2.50
2018-12-24T23:57:44.460Z,2.70
